createdAt,value
2017-01-30T00:00:34.781Z,-0.26
2017-01-30T00:01:45.058Z,-0.3
2017-01-30T00:02:55.729Z,-0.31
2017-01-30T00:04:06.013Z,-0.3
2017-01-30T00:05:15.892Z,-0.28
2017-01-30T00:06:26.566Z,-0.27
2017-01-30T00:07:37.269Z,-0.31
2017-01-30T00:08:47.959Z,-0.36
2017-01-30T00:09:58.631Z,-0.35
2017-01-30T00:11:09.307Z,-0.3
2017-01-30T00:12:19.618Z,-0.26
2017-01-30T00:13:30.293Z,-0.31
2017-01-30T00:14:40.981Z,-0.23
2017-01-30T00:15:51.658Z,-0.24
2017-01-30T00:17:02.332Z,-0.2
2017-01-30T00:18:13.004Z,-0.2
2017-01-30T00:19:23.683Z,-0.21
2017-01-30T00:20:34.363Z,-0.13
2017-01-30T00:21:45.046Z,-0.13
2017-01-30T00:22:55.720Z,-0.15
2017-01-30T00:24:06.391Z,-0.15
2017-01-30T00:25:16.668Z,-0.18
2017-01-30T00:26:27.343Z,-0.1
2017-01-30T00:27:38.013Z,-0.12
2017-01-30T00:28:48.685Z,-0.15
2017-01-30T00:29:58.963Z,-0.21
2017-01-30T00:31:09.632Z,-0.23
2017-01-30T00:32:20.309Z,-0.17
2017-01-30T00:33:30.603Z,-0.21
2017-01-30T00:34:40.885Z,-0.2
2017-01-30T00:35:51.559Z,-0.21
2017-01-30T00:37:02.242Z,-0.2
2017-01-30T00:38:12.918Z,-0.21
2017-01-30T00:39:23.591Z,-0.1
2017-01-30T00:40:34.291Z,-0.05
2017-01-30T00:41:44.169Z,-0.09
2017-01-30T00:42:54.848Z,-0.09
2017-01-30T00:44:05.514Z,-0.12
2017-01-30T00:45:15.394Z,-0.09
2017-01-30T00:46:26.094Z,-0.12
2017-01-30T00:47:36.800Z,-0.12
2017-01-30T00:48:47.473Z,-0.13
2017-01-30T00:49:57.756Z,-0.18
2017-01-30T00:51:08.435Z,-0.15
2017-01-30T00:52:18.308Z,-0.13
2017-01-30T00:53:28.981Z,-0.2
2017-01-30T00:54:39.651Z,-0.17
2017-01-30T00:55:50.328Z,-0.21
2017-01-30T00:57:00.998Z,-0.23
2017-01-30T00:58:11.675Z,-0.21
2017-01-30T00:59:22.353Z,-0.18
2017-01-30T01:00:33.036Z,-0.17
2017-01-30T01:01:43.709Z,-0.09
2017-01-30T01:02:54.418Z,-0.06
2017-01-30T01:04:04.732Z,-0.13
2017-01-30T01:05:15.401Z,-0.07
2017-01-30T01:06:25.678Z,-0.07
2017-01-30T01:07:36.351Z,-0.07
2017-01-30T01:08:47.026Z,-0.15
2017-01-30T01:09:57.713Z,-0.33
2017-01-30T01:11:07.994Z,-0.3
2017-01-30T01:12:18.266Z,-0.42
2017-01-30T01:13:28.949Z,-0.49
2017-01-30T01:14:39.629Z,-0.53
2017-01-30T01:15:50.302Z,-0.57
2017-01-30T01:17:00.983Z,-0.49
2017-01-30T01:18:11.660Z,-0.53
2017-01-30T01:19:21.542Z,-0.69
2017-01-30T01:20:32.213Z,-0.72
2017-01-30T01:21:42.894Z,-0.77
2017-01-30T01:22:53.175Z,-0.77
2017-01-30T01:24:03.852Z,-0.89
2017-01-30T01:25:14.526Z,-0.85
2017-01-30T01:26:25.191Z,-0.89
2017-01-30T01:27:35.875Z,-0.87
2017-01-30T01:28:46.554Z,-0.93
2017-01-30T01:29:57.232Z,-0.97
2017-01-30T01:31:07.911Z,-0.97
2017-01-30T01:32:18.588Z,-0.93
2017-01-30T01:33:29.260Z,-0.97
2017-01-30T01:34:39.935Z,-1
2017-01-30T01:35:50.615Z,-1
2017-01-30T01:37:01.290Z,-1.12
2017-01-30T01:38:11.969Z,-1.12
2017-01-30T01:39:22.642Z,-1.21
2017-01-30T01:40:33.323Z,-1.15
2017-01-30T01:41:43.993Z,-1.15
2017-01-30T01:42:54.663Z,-1.22
2017-01-30T01:44:05.345Z,-1.22
2017-01-30T01:45:15.621Z,-1.3
2017-01-30T01:46:26.299Z,-1.29
2017-01-30T01:47:36.980Z,-1.24
2017-01-30T01:48:47.674Z,-1.3
2017-01-30T01:49:58.357Z,-1.27
2017-01-30T01:51:09.051Z,-1.36
2017-01-30T01:52:19.723Z,-1.39
2017-01-30T01:53:30.393Z,-1.3
2017-01-30T01:54:41.063Z,-1.33
2017-01-30T01:55:51.734Z,-1.33
2017-01-30T01:57:02.413Z,-1.39
2017-01-30T01:58:12.803Z,-1.36
2017-01-30T01:59:23.077Z,-1.43
2017-01-30T02:00:33.749Z,-1.29
2017-01-30T02:01:44.418Z,-1.45
2017-01-30T02:02:54.695Z,-1.35
2017-01-30T02:04:05.374Z,-1.36
2017-01-30T02:05:16.040Z,-1.36
2017-01-30T02:06:26.715Z,-1.29
2017-01-30T02:07:37.011Z,-1.22
2017-01-30T02:08:47.684Z,-1.12
2017-01-30T02:09:58.357Z,-1.09
2017-01-30T02:11:08.632Z,-1.04
2017-01-30T02:12:18.915Z,-1
2017-01-30T02:13:29.591Z,-0.94
2017-01-30T02:14:40.263Z,-0.94
2017-01-30T02:15:50.540Z,-0.89
2017-01-30T02:17:01.213Z,-0.94
2017-01-30T02:18:11.491Z,-0.77
2017-01-30T02:19:21.769Z,-0.66
2017-01-30T02:20:32.445Z,-0.67
2017-01-30T02:21:43.122Z,-0.6
2017-01-30T02:22:53.797Z,-0.49
2017-01-30T02:24:04.473Z,-0.56
2017-01-30T02:25:14.741Z,-0.51
2017-01-30T02:26:25.411Z,-0.54
2017-01-30T02:27:36.388Z,-0.56
2017-01-30T02:28:47.060Z,-0.57
2017-01-30T02:29:57.731Z,-0.59
2017-01-30T02:31:08.417Z,-0.45
2017-01-30T02:32:19.100Z,-0.49
2017-01-30T02:33:29.775Z,-0.49
2017-01-30T02:34:40.455Z,-0.53
2017-01-30T02:35:51.136Z,-0.38
2017-01-30T02:37:01.805Z,-0.44
2017-01-30T02:38:12.074Z,-0.44
2017-01-30T02:39:22.357Z,-0.39
2017-01-30T02:40:33.030Z,-0.46
2017-01-30T02:41:43.709Z,-0.53
2017-01-30T02:42:53.986Z,-0.48
2017-01-30T02:44:04.655Z,-0.45
2017-01-30T02:45:15.328Z,-0.49
2017-01-30T02:46:26.015Z,-0.44
2017-01-30T02:47:36.692Z,-0.53
2017-01-30T02:48:47.372Z,-0.53
2017-01-30T02:49:58.046Z,-0.49
2017-01-30T02:51:08.718Z,-0.45
2017-01-30T02:52:19.389Z,-0.44
2017-01-30T02:53:30.071Z,-0.53
2017-01-30T02:54:40.746Z,-0.45
2017-01-30T02:55:51.015Z,-0.39
2017-01-30T02:57:01.686Z,-0.38
2017-01-30T02:58:11.958Z,-0.44
2017-01-30T02:59:22.629Z,-0.42
2017-01-30T03:00:33.335Z,-0.39
2017-01-30T03:01:44.014Z,-0.49
2017-01-30T03:02:54.689Z,-0.41
2017-01-30T03:04:05.362Z,-0.39
2017-01-30T03:05:15.642Z,-0.42
2017-01-30T03:06:26.326Z,-0.42
2017-01-30T03:07:37.013Z,-0.41
2017-01-30T03:08:47.694Z,-0.33
2017-01-30T03:09:58.365Z,-0.36
2017-01-30T03:11:08.641Z,-0.39
2017-01-30T03:12:19.313Z,-0.33
2017-01-30T03:13:29.990Z,-0.39
2017-01-30T03:14:40.661Z,-0.38
2017-01-30T03:15:51.331Z,-0.44
2017-01-30T03:17:02.003Z,-0.39
2017-01-30T03:18:12.678Z,-0.51
2017-01-30T03:19:22.953Z,-0.49
2017-01-30T03:20:33.632Z,-0.51
2017-01-30T03:21:44.311Z,-0.54
2017-01-30T03:22:54.987Z,-0.49
2017-01-30T03:24:05.664Z,-0.51
2017-01-30T03:25:15.937Z,-0.46
2017-01-30T03:26:26.609Z,-0.59
2017-01-30T03:27:37.322Z,-0.48
2017-01-30T03:28:48.027Z,-0.48
2017-01-30T03:29:58.363Z,-0.48
2017-01-30T03:31:09.046Z,-0.44
2017-01-30T03:32:19.322Z,-0.35
2017-01-30T03:33:29.997Z,-0.42
2017-01-30T03:34:40.680Z,-0.46
2017-01-30T03:35:51.358Z,-0.53
2017-01-30T03:37:01.642Z,-0.66
2017-01-30T03:38:12.330Z,-0.74
2017-01-30T03:39:23.003Z,-0.93
2017-01-30T03:40:33.682Z,-0.93
2017-01-30T03:41:44.363Z,-0.96
2017-01-30T03:42:55.040Z,-0.96
2017-01-30T03:44:05.326Z,-1.01
2017-01-30T03:45:15.998Z,-1
2017-01-30T03:46:26.666Z,-1.04
2017-01-30T03:47:37.337Z,-1.14
2017-01-30T03:48:48.013Z,-1.11
2017-01-30T03:49:58.693Z,-1.12
2017-01-30T03:51:09.364Z,-1.12
2017-01-30T03:52:19.639Z,-1.09
2017-01-30T03:53:30.341Z,-1.24
2017-01-30T03:54:41.015Z,-1.18
2017-01-30T03:55:51.686Z,-1.18
2017-01-30T03:57:02.363Z,-1.21
2017-01-30T03:58:13.038Z,-1.24
2017-01-30T03:59:23.713Z,-1.32
2017-01-30T04:00:34.386Z,-1.35
2017-01-30T04:01:45.060Z,-1.24
2017-01-30T04:02:55.730Z,-1.25
2017-01-30T04:04:06.407Z,-1.24
2017-01-30T04:05:17.094Z,-1.33
2017-01-30T04:06:27.764Z,-1.29
2017-01-30T04:07:38.439Z,-1.32
2017-01-30T04:08:49.115Z,-1.3
2017-01-30T04:09:59.788Z,-1.29
2017-01-30T04:11:10.065Z,-1.33
2017-01-30T04:12:20.342Z,-1.24
2017-01-30T04:13:31.025Z,-1.33
2017-01-30T04:14:41.700Z,-1.36
2017-01-30T04:15:52.375Z,-1.32
2017-01-30T04:17:03.048Z,-1.4
2017-01-30T04:18:13.746Z,-1.35
2017-01-30T04:19:24.423Z,-1.38
2017-01-30T04:20:35.092Z,-1.32
2017-01-30T04:21:45.764Z,-1.42
2017-01-30T04:22:56.449Z,-1.3
2017-01-30T04:24:07.128Z,-1.33
2017-01-30T04:25:17.809Z,-1.39
2017-01-30T04:26:28.474Z,-1.39
2017-01-30T04:27:39.149Z,-1.39
2017-01-30T04:28:49.824Z,-1.4
2017-01-30T04:30:00.500Z,-1.39
2017-01-30T04:31:11.172Z,-1.42
2017-01-30T04:32:21.854Z,-1.43
2017-01-30T04:33:32.536Z,-1.42
2017-01-30T04:34:43.216Z,-1.4
2017-01-30T04:35:53.909Z,-1.43
2017-01-30T04:37:04.582Z,-1.46
2017-01-30T04:38:15.252Z,-1.56
2017-01-30T04:39:25.923Z,-1.46
2017-01-30T04:40:36.625Z,-1.51
2017-01-30T04:41:47.296Z,-1.57
2017-01-30T04:42:57.962Z,-1.51
2017-01-30T04:44:08.674Z,-1.58
2017-01-30T04:45:19.348Z,-1.64
2017-01-30T04:46:30.060Z,-1.63
2017-01-30T04:47:40.765Z,-1.66
2017-01-30T04:48:51.443Z,-1.6
2017-01-30T04:50:02.119Z,-1.71
2017-01-30T04:51:12.392Z,-1.66
2017-01-30T04:52:22.671Z,-1.71
2017-01-30T04:53:33.343Z,-1.69
2017-01-30T04:54:43.613Z,-1.64
2017-01-30T04:55:54.289Z,-1.54
2017-01-30T04:57:04.961Z,-1.61
2017-01-30T04:58:15.640Z,-1.68
2017-01-30T04:59:26.308Z,-1.69
2017-01-30T05:00:36.978Z,-1.64
2017-01-30T05:01:47.656Z,-1.63
2017-01-30T05:02:58.324Z,-1.72
2017-01-30T05:04:08.997Z,-1.64
2017-01-30T05:05:19.671Z,-1.64
2017-01-30T05:06:30.341Z,-1.72
2017-01-30T05:07:41.015Z,-1.69
2017-01-30T05:08:51.689Z,-1.78
2017-01-30T05:10:02.387Z,-1.78
2017-01-30T05:11:13.060Z,-1.78
2017-01-30T05:12:23.730Z,-1.75
2017-01-30T05:13:34.405Z,-1.76
2017-01-30T05:14:45.084Z,-1.74
2017-01-30T05:15:55.361Z,-1.79
2017-01-30T05:17:06.037Z,-1.84
2017-01-30T05:18:16.707Z,-1.93
2017-01-30T05:19:27.373Z,-1.76
2017-01-30T05:20:38.044Z,-1.84
2017-01-30T05:21:48.721Z,-1.78
2017-01-30T05:22:59.401Z,-1.96
2017-01-30T05:24:10.096Z,-1.93
2017-01-30T05:25:20.370Z,-1.87
2017-01-30T05:26:31.043Z,-1.89
2017-01-30T05:27:41.720Z,-1.87
2017-01-30T05:28:52.398Z,-1.82
2017-01-30T05:30:03.074Z,-1.96
2017-01-30T05:31:12.156Z,-1.92
2017-01-30T05:32:22.833Z,-1.92
2017-01-30T05:33:33.544Z,-1.87
2017-01-30T05:34:43.826Z,-1.87
2017-01-30T05:35:54.501Z,-1.84
2017-01-30T05:37:05.184Z,-1.87
2017-01-30T05:38:15.858Z,-1.87
2017-01-30T05:39:26.529Z,-1.9
2017-01-30T05:40:37.203Z,-1.9
2017-01-30T05:41:47.876Z,-1.87
2017-01-30T05:42:58.581Z,-1.92
2017-01-30T05:44:09.260Z,-1.96
2017-01-30T05:45:19.532Z,-1.86
2017-01-30T05:46:30.215Z,-1.89
2017-01-30T05:47:40.891Z,-1.94
2017-01-30T05:48:51.561Z,-1.94
2017-01-30T05:50:01.839Z,-1.92
2017-01-30T05:51:11.719Z,-1.87
2017-01-30T05:52:22.389Z,-1.89
2017-01-30T05:53:33.056Z,-1.87
2017-01-30T05:54:43.733Z,-1.92
2017-01-30T05:55:54.410Z,-1.9
2017-01-30T05:57:05.090Z,-1.93
2017-01-30T05:58:15.768Z,-1.97
2017-01-30T05:59:26.440Z,-2.07
2017-01-30T06:00:37.110Z,-1.93
2017-01-30T06:01:47.783Z,-2.02
2017-01-30T06:02:58.054Z,-2.04
2017-01-30T06:04:08.728Z,-2.05
2017-01-30T06:05:19.427Z,-2.02
2017-01-30T06:06:30.105Z,-2
2017-01-30T06:07:40.804Z,-2.08
2017-01-30T06:08:51.471Z,-2.08
2017-01-30T06:10:02.148Z,-2.1
2017-01-30T06:11:12.826Z,-2.08
2017-01-30T06:12:23.498Z,-2.17
2017-01-30T06:13:34.174Z,-2
2017-01-30T06:14:44.454Z,-2.1
2017-01-30T06:15:55.129Z,-2.1
2017-01-30T06:17:05.406Z,-2.13
2017-01-30T06:18:14.887Z,-2.14
2017-01-30T06:19:25.560Z,-2.18
2017-01-30T06:20:36.230Z,-2.17
2017-01-30T06:21:46.903Z,-2.28
2017-01-30T06:22:57.570Z,-2.18
2017-01-30T06:24:08.244Z,-2.23
2017-01-30T06:25:18.914Z,-2.2
2017-01-30T06:26:29.579Z,-2.2
2017-01-30T06:27:40.253Z,-2.25
2017-01-30T06:28:50.926Z,-2.26
2017-01-30T06:30:01.197Z,-2.32
2017-01-30T06:31:11.872Z,-2.28
2017-01-30T06:32:22.546Z,-2.26
2017-01-30T06:33:33.211Z,-2.37
2017-01-30T06:34:44.232Z,-2.36
2017-01-30T06:35:54.914Z,-2.4
2017-01-30T06:37:05.221Z,-2.4
2017-01-30T06:38:15.895Z,-2.34
2017-01-30T06:39:26.573Z,-2.44
2017-01-30T06:40:36.846Z,-2.37
2017-01-30T06:41:47.523Z,-2.44
2017-01-30T06:42:57.813Z,-2.37
2017-01-30T06:44:08.103Z,-2.4
2017-01-30T06:45:17.988Z,-2.39
2017-01-30T06:46:28.690Z,-2.48
2017-01-30T06:47:39.363Z,-2.51
2017-01-30T06:48:49.636Z,-2.47
2017-01-30T06:50:00.343Z,-2.48
2017-01-30T06:51:10.613Z,-2.52
2017-01-30T06:52:21.293Z,-2.58
2017-01-30T06:53:31.966Z,-2.5
2017-01-30T06:54:42.639Z,-2.5
2017-01-30T06:55:53.310Z,-2.58
2017-01-30T06:57:03.984Z,-2.55
2017-01-30T06:58:14.262Z,-2.58
2017-01-30T06:59:24.953Z,-2.68
2017-01-30T07:00:35.633Z,-2.65
2017-01-30T07:01:45.901Z,-2.61
2017-01-30T07:02:56.574Z,-2.61
2017-01-30T07:04:07.249Z,-2.76
2017-01-30T07:05:17.556Z,-2.7
2017-01-30T07:06:28.229Z,-2.75
2017-01-30T07:07:38.908Z,-2.69
2017-01-30T07:08:49.582Z,-2.8
2017-01-30T07:10:00.244Z,-2.76
2017-01-30T07:11:10.124Z,-2.89
2017-01-30T07:12:20.798Z,-2.87
2017-01-30T07:13:31.470Z,-2.86
2017-01-30T07:14:41.753Z,-2.89
2017-01-30T07:15:52.458Z,-2.93
2017-01-30T07:17:03.134Z,-2.83
2017-01-30T07:18:13.012Z,-2.89
2017-01-30T07:19:23.690Z,-2.96
2017-01-30T07:20:33.985Z,-2.96
2017-01-30T07:21:44.660Z,-2.99
2017-01-30T07:22:55.336Z,-2.98
2017-01-30T07:24:06.012Z,-3.09
2017-01-30T07:25:16.282Z,-3.04
2017-01-30T07:26:26.953Z,-3.04
2017-01-30T07:27:37.233Z,-3.09
2017-01-30T07:28:47.904Z,-3.09
2017-01-30T07:29:58.576Z,-3.07
2017-01-30T07:31:09.247Z,-3.12
2017-01-30T07:32:19.966Z,-3.26
2017-01-30T07:33:30.644Z,-3.27
2017-01-30T07:34:41.322Z,-3.32
2017-01-30T07:35:51.997Z,-3.3
2017-01-30T07:37:02.684Z,-3.33
2017-01-30T07:38:13.365Z,-3.43
2017-01-30T07:39:24.037Z,-3.4
2017-01-30T07:40:34.707Z,-3.47
2017-01-30T07:41:45.379Z,-3.38
2017-01-30T07:42:55.661Z,-3.4
2017-01-30T07:44:06.334Z,-3.36
2017-01-30T07:45:17.000Z,-3.44
2017-01-30T07:46:27.675Z,-3.46
2017-01-30T07:47:38.380Z,-3.47
2017-01-30T07:48:48.659Z,-3.5
2017-01-30T07:49:59.327Z,-3.48
2017-01-30T07:51:09.599Z,-3.48
2017-01-30T07:52:19.888Z,-3.46
2017-01-30T07:53:30.557Z,-3.46
2017-01-30T07:54:41.226Z,-3.5
2017-01-30T07:55:51.893Z,-3.5
2017-01-30T07:57:02.173Z,-3.47
2017-01-30T07:58:12.843Z,-3.46
2017-01-30T07:59:23.510Z,-3.4
2017-01-30T08:00:34.187Z,-3.23
2017-01-30T08:01:44.860Z,-3.26
2017-01-30T08:02:55.531Z,-3.27
2017-01-30T08:04:06.229Z,-3.17
2017-01-30T08:05:16.900Z,-3.11
2017-01-30T08:06:27.570Z,-3.2
2017-01-30T08:07:38.244Z,-3.14
2017-01-30T08:08:48.945Z,-3.09
2017-01-30T08:09:59.218Z,-3.14
2017-01-30T08:11:09.899Z,-3.12
2017-01-30T08:12:20.173Z,-3.15
2017-01-30T08:13:30.452Z,-3.11
2017-01-30T08:14:41.127Z,-3.01
2017-01-30T08:15:51.798Z,-3.05
2017-01-30T08:17:02.474Z,-3.02
2017-01-30T08:18:13.179Z,-3.01
2017-01-30T08:19:23.857Z,-3.02
2017-01-30T08:20:34.547Z,-2.94
2017-01-30T08:21:45.216Z,-2.89
2017-01-30T08:22:55.885Z,-2.87
2017-01-30T08:24:06.557Z,-2.84
2017-01-30T08:25:16.832Z,-2.8
2017-01-30T08:26:27.505Z,-2.7
2017-01-30T08:27:38.177Z,-2.84
2017-01-30T08:28:48.875Z,-2.76
2017-01-30T08:29:59.150Z,-2.73
2017-01-30T08:31:09.831Z,-2.9
2017-01-30T08:32:20.500Z,-2.91
2017-01-30T08:33:31.167Z,-2.99
2017-01-30T08:34:41.854Z,-3.11
2017-01-30T08:35:52.525Z,-3.12
2017-01-30T08:37:03.194Z,-3.27
2017-01-30T08:38:13.064Z,-3.43
2017-01-30T08:39:23.732Z,-3.48
2017-01-30T08:40:34.410Z,-3.5
2017-01-30T08:41:45.077Z,-3.61
2017-01-30T08:42:55.747Z,-3.68
2017-01-30T08:44:06.418Z,-3.9
2017-01-30T08:45:16.715Z,-4.02
2017-01-30T08:46:27.379Z,-3.98
2017-01-30T08:47:37.654Z,-4.08
2017-01-30T08:48:48.350Z,-4.16
2017-01-30T08:49:59.030Z,-4.2
2017-01-30T08:51:09.712Z,-4.33
2017-01-30T08:52:20.004Z,-4.35
2017-01-30T08:53:30.678Z,-4.33
2017-01-30T08:54:41.352Z,-4.44
2017-01-30T08:55:52.016Z,-4.44
2017-01-30T08:57:02.687Z,-4.47
2017-01-30T08:58:13.359Z,-4.41
2017-01-30T08:59:24.031Z,-4.44
2017-01-30T09:00:34.701Z,-4.47
2017-01-30T09:01:45.380Z,-4.42
2017-01-30T09:02:56.056Z,-4.51
2017-01-30T09:04:06.723Z,-4.55
2017-01-30T09:05:16.999Z,-4.52
2017-01-30T09:06:27.669Z,-4.56
2017-01-30T09:07:38.337Z,-4.58
2017-01-30T09:08:48.620Z,-4.58
2017-01-30T09:09:59.294Z,-4.59
2017-01-30T09:11:09.573Z,-4.55
2017-01-30T09:12:19.848Z,-4.45
2017-01-30T09:13:30.667Z,-4.41
2017-01-30T09:14:41.337Z,-4.47
2017-01-30T09:15:52.005Z,-4.51
2017-01-30T09:17:02.678Z,-4.45
2017-01-30T09:18:12.963Z,-4.38
2017-01-30T09:19:23.631Z,-4.45
2017-01-30T09:20:34.304Z,-4.44
2017-01-30T09:21:44.976Z,-4.3
2017-01-30T09:22:55.638Z,-4.4
2017-01-30T09:24:06.309Z,-4.31
2017-01-30T09:25:16.974Z,-4.27
2017-01-30T09:26:27.643Z,-4.31
2017-01-30T09:27:38.313Z,-4.33
2017-01-30T09:28:49.019Z,-4.35
2017-01-30T09:29:59.689Z,-4.33
2017-01-30T09:31:09.989Z,-4.34
2017-01-30T09:32:20.299Z,-4.3
2017-01-30T09:33:30.967Z,-4.26
2017-01-30T09:34:41.637Z,-4.24
2017-01-30T09:35:52.318Z,-4.27
2017-01-30T09:37:02.989Z,-4.35
2017-01-30T09:38:13.270Z,-4.42
2017-01-30T09:39:23.551Z,-4.42
2017-01-30T09:40:34.266Z,-4.38
2017-01-30T09:41:44.941Z,-4.49
2017-01-30T09:42:55.619Z,-4.51
2017-01-30T09:44:06.294Z,-4.41
2017-01-30T09:45:16.971Z,-4.45
2017-01-30T09:46:27.676Z,-4.45
2017-01-30T09:47:38.358Z,-4.41
2017-01-30T09:48:48.631Z,-4.44
2017-01-30T09:49:59.299Z,-4.42
2017-01-30T09:51:09.982Z,-4.41
2017-01-30T09:52:20.252Z,-4.44
2017-01-30T09:53:30.919Z,-4.44
2017-01-30T09:54:41.595Z,-4.44
2017-01-30T09:55:52.266Z,-4.42
2017-01-30T09:57:02.945Z,-4.41
2017-01-30T09:58:13.620Z,-4.41
2017-01-30T09:59:23.889Z,-4.41
2017-01-30T10:00:34.596Z,-4.4
2017-01-30T10:01:45.266Z,-4.49
2017-01-30T10:02:55.931Z,-4.51
2017-01-30T10:04:06.604Z,-4.41
2017-01-30T10:05:16.877Z,-4.55
2017-01-30T10:06:27.550Z,-4.55
2017-01-30T10:07:38.220Z,-4.53
2017-01-30T10:08:48.894Z,-4.58
2017-01-30T10:09:59.575Z,-4.59
2017-01-30T10:11:10.246Z,-4.53
2017-01-30T10:12:20.926Z,-4.58
2017-01-30T10:13:31.236Z,-4.55
2017-01-30T10:14:41.928Z,-4.38
2017-01-30T10:15:52.200Z,-4.45
2017-01-30T10:17:02.490Z,-4.44
2017-01-30T10:18:12.771Z,-4.3
2017-01-30T10:19:23.472Z,-4.27
2017-01-30T10:20:34.152Z,-4.34
2017-01-30T10:21:44.820Z,-4.19
2017-01-30T10:22:55.497Z,-4.23
2017-01-30T10:24:06.174Z,-4.2
2017-01-30T10:25:16.848Z,-4.22
2017-01-30T10:26:27.513Z,-4.14
2017-01-30T10:27:38.193Z,-4.12
2017-01-30T10:28:48.865Z,-4.05
2017-01-30T10:29:59.533Z,-4.02
2017-01-30T10:31:10.206Z,-4.08
2017-01-30T10:32:20.881Z,-4.01
2017-01-30T10:33:31.549Z,-3.95
2017-01-30T10:34:41.838Z,-3.9
2017-01-30T10:35:52.507Z,-3.9
2017-01-30T10:37:02.777Z,-3.94
2017-01-30T10:38:13.450Z,-3.94
2017-01-30T10:39:24.122Z,-3.88
2017-01-30T10:40:34.794Z,-4.02
2017-01-30T10:41:45.473Z,-3.94
2017-01-30T10:42:56.144Z,-3.88
2017-01-30T10:44:06.810Z,-4.04
2017-01-30T10:45:17.494Z,-3.96
2017-01-30T10:46:28.168Z,-4.02
2017-01-30T10:47:38.452Z,-4.02
2017-01-30T10:48:49.115Z,-3.95
2017-01-30T10:49:59.389Z,-3.91
2017-01-30T10:51:10.064Z,-3.91
2017-01-30T10:52:20.730Z,-3.83
2017-01-30T10:53:31.404Z,-3.81
2017-01-30T10:54:41.676Z,-3.84
2017-01-30T10:55:52.343Z,-3.85
2017-01-30T10:57:02.622Z,-3.64
2017-01-30T10:58:12.903Z,-3.44
2017-01-30T10:59:23.188Z,-3.05
2017-01-30T11:00:33.865Z,-3.04
2017-01-30T11:01:44.558Z,-2.86
2017-01-30T11:02:54.839Z,-2.63
2017-01-30T11:04:05.511Z,-2.52
2017-01-30T11:05:16.184Z,-2.33
2017-01-30T11:06:26.855Z,-2.32
2017-01-30T11:07:37.531Z,-2.2
2017-01-30T11:08:48.205Z,-2.22
2017-01-30T11:09:58.873Z,-2
2017-01-30T11:11:09.554Z,-1.76
2017-01-30T11:12:20.238Z,-1.57
2017-01-30T11:13:30.941Z,-1.27
2017-01-30T11:14:41.619Z,-0.87
2017-01-30T11:15:52.291Z,-0.57
2017-01-30T11:17:02.967Z,-0.36
2017-01-30T11:18:13.636Z,-0.17
2017-01-30T11:19:24.313Z,0.12
2017-01-30T11:20:34.984Z,0.18
2017-01-30T11:21:45.662Z,0.37
2017-01-30T11:22:56.350Z,0.29
2017-01-30T11:24:06.653Z,0.52
2017-01-30T11:25:16.938Z,0.48
2017-01-30T11:26:27.613Z,0.63
2017-01-30T11:27:38.286Z,0.71
2017-01-30T11:28:48.968Z,0.78
2017-01-30T11:29:59.647Z,0.82
2017-01-30T11:31:10.331Z,0.81
2017-01-30T11:32:20.606Z,0.7
2017-01-30T11:33:31.282Z,0.64
2017-01-30T11:34:41.965Z,0.7
2017-01-30T11:35:52.646Z,0.71
2017-01-30T11:37:02.927Z,0.67
2017-01-30T11:38:13.612Z,0.56
2017-01-30T11:39:24.297Z,0.63
2017-01-30T11:40:34.581Z,0.71
2017-01-30T11:41:45.265Z,0.71
2017-01-30T11:42:55.963Z,0.74
2017-01-30T11:44:06.637Z,0.92
2017-01-30T11:45:16.911Z,1.03
2017-01-30T11:46:27.596Z,1.2
2017-01-30T11:47:38.274Z,1.39
2017-01-30T11:48:48.956Z,1.56
2017-01-30T11:49:59.634Z,1.71
2017-01-30T11:51:10.323Z,1.97
2017-01-30T11:52:21.007Z,1.97
2017-01-30T11:53:31.679Z,2
2017-01-30T11:54:42.366Z,2.25
2017-01-30T11:55:52.652Z,2.28
2017-01-30T11:57:02.138Z,2.26
2017-01-30T11:58:12.843Z,2.28
2017-01-30T11:59:23.527Z,2.18
2017-01-30T12:00:34.202Z,2.3
2017-01-30T12:01:44.880Z,2.26
2017-01-30T12:02:55.166Z,2.19
2017-01-30T12:04:05.455Z,2.07
2017-01-30T12:05:15.351Z,2.14
2017-01-30T12:06:26.048Z,2
2017-01-30T12:07:36.724Z,2.14
2017-01-30T12:08:47.011Z,2.05
2017-01-30T12:09:56.923Z,2.46
2017-01-30T12:11:07.611Z,2.5
2017-01-30T12:12:18.293Z,2.52
2017-01-30T12:13:28.982Z,2.51
2017-01-30T12:14:39.663Z,2.58
2017-01-30T12:15:50.298Z,2.59
2017-01-30T12:17:00.982Z,2.97
2017-01-30T12:18:11.673Z,3.36
2017-01-30T12:19:22.378Z,3.43
2017-01-30T12:20:32.658Z,3.43
2017-01-30T12:21:43.332Z,3.52
2017-01-30T12:22:54.020Z,3.52
2017-01-30T12:24:04.733Z,3.81
2017-01-30T12:25:15.414Z,3.78
2017-01-30T12:26:26.088Z,3.81
2017-01-30T12:27:36.767Z,4.1
2017-01-30T12:28:47.060Z,4.28
2017-01-30T12:29:57.743Z,4.48
2017-01-30T12:31:08.426Z,4.76
2017-01-30T12:32:18.716Z,5.22
2017-01-30T12:33:29.403Z,5.49
2017-01-30T12:34:40.088Z,5.73
2017-01-30T12:35:50.775Z,5.94
2017-01-30T12:37:01.461Z,6.31
2017-01-30T12:38:12.150Z,6.6
2017-01-30T12:39:22.832Z,6.77
2017-01-30T12:40:33.528Z,7.07
2017-01-30T12:41:43.818Z,7.18
2017-01-30T12:42:54.506Z,7.19
2017-01-30T12:44:05.190Z,7.55
2017-01-30T12:45:15.482Z,7.67
2017-01-30T12:46:26.174Z,7.9
2017-01-30T12:47:36.866Z,8.2
2017-01-30T12:48:47.554Z,8.27
2017-01-30T12:49:58.242Z,8.27
2017-01-30T12:51:08.537Z,8.42
2017-01-30T12:52:18.835Z,8.71
2017-01-30T12:53:29.533Z,8.86
2017-01-30T12:54:40.216Z,8.97
2017-01-30T12:55:50.906Z,9.27
2017-01-30T12:57:01.600Z,9.15
2017-01-30T12:58:12.282Z,9.19
2017-01-30T12:59:22.570Z,9.16
2017-01-30T13:00:33.254Z,9.15
2017-01-30T13:01:43.950Z,9.36
2017-01-30T13:02:54.246Z,9.34
2017-01-30T13:04:04.935Z,9.4
2017-01-30T13:05:15.620Z,9.48
2017-01-30T13:06:25.916Z,9.63
2017-01-30T13:07:36.642Z,9.66
2017-01-30T13:08:46.940Z,9.91
2017-01-30T13:09:57.232Z,10.06
2017-01-30T13:11:07.921Z,10.09
2017-01-30T13:12:18.214Z,10.21
2017-01-30T13:13:28.900Z,10.25
2017-01-30T13:14:39.595Z,10.42
2017-01-30T13:15:50.283Z,10.34
2017-01-30T13:17:00.573Z,10.39
2017-01-30T13:18:11.267Z,10.36
2017-01-30T13:19:21.958Z,10.2
2017-01-30T13:20:32.642Z,10.13
2017-01-30T13:21:43.327Z,10.03
2017-01-30T13:22:54.018Z,10.05
2017-01-30T13:24:04.736Z,10.03
2017-01-30T13:25:15.035Z,10.05
2017-01-30T13:26:25.726Z,10.15
2017-01-30T13:27:36.419Z,10.12
2017-01-30T13:28:47.111Z,10.18
2017-01-30T13:29:57.403Z,10.23
2017-01-30T13:31:07.693Z,10.1
2017-01-30T13:32:17.584Z,10.06
2017-01-30T13:33:28.290Z,9.87
2017-01-30T13:34:38.981Z,9.13
2017-01-30T13:35:49.673Z,8.21
2017-01-30T13:36:59.969Z,7.59
2017-01-30T13:38:10.266Z,7.13
2017-01-30T13:39:20.959Z,6.64
2017-01-30T13:40:31.643Z,6.32
2017-01-30T13:41:42.330Z,5.83
2017-01-30T13:42:52.616Z,5.02
2017-01-30T13:44:02.506Z,4.64
2017-01-30T13:45:13.197Z,4.5
2017-01-30T13:46:23.884Z,4.32
2017-01-30T13:47:34.577Z,4.27
2017-01-30T13:48:45.258Z,3.91
2017-01-30T13:49:55.643Z,3.68
2017-01-30T13:51:05.934Z,3.55
2017-01-30T13:52:16.619Z,3.29
2017-01-30T13:53:27.313Z,2.93
2017-01-30T13:54:38.000Z,2.83
2017-01-30T13:55:48.691Z,2.76
2017-01-30T13:56:59.376Z,2.61
2017-01-30T13:58:10.055Z,2.34
2017-01-30T13:59:20.746Z,2.21
2017-01-30T14:00:31.432Z,2.23
2017-01-30T14:01:42.117Z,2.19
2017-01-30T14:02:52.801Z,2.16
2017-01-30T14:04:03.093Z,2.16
2017-01-30T14:05:13.372Z,2.14
2017-01-30T14:06:23.652Z,2.03
2017-01-30T14:07:34.328Z,2.01
2017-01-30T14:08:45.016Z,2.03
2017-01-30T14:09:55.693Z,2
2017-01-30T14:11:06.373Z,2.05
2017-01-30T14:12:16.656Z,1.93
2017-01-30T14:13:27.332Z,1.89
2017-01-30T14:14:38.012Z,1.75
2017-01-30T14:15:48.303Z,1.56
2017-01-30T14:16:58.596Z,1.31
2017-01-30T14:18:08.876Z,1.13
2017-01-30T14:19:19.552Z,0.88
2017-01-30T14:20:30.234Z,0.7
2017-01-30T14:21:40.913Z,0.56
2017-01-30T14:22:51.597Z,0.39
2017-01-30T14:24:02.276Z,0.11
2017-01-30T14:25:12.558Z,0
2017-01-30T14:26:23.236Z,-0.09
2017-01-30T14:27:33.916Z,-0.36
2017-01-30T14:28:43.793Z,-0.42
2017-01-30T14:29:54.466Z,-0.54
2017-01-30T14:31:05.151Z,-0.77
2017-01-30T14:32:15.048Z,-0.96
2017-01-30T14:33:25.331Z,-1.15
2017-01-30T14:34:36.011Z,-1.36
2017-01-30T14:35:46.685Z,-1.42
2017-01-30T14:36:56.965Z,-1.64
2017-01-30T14:38:06.846Z,-1.69
2017-01-30T14:39:17.129Z,-1.74
2017-01-30T14:40:27.799Z,-1.79
2017-01-30T14:41:38.469Z,-1.82
2017-01-30T14:42:49.137Z,-1.89
2017-01-30T14:43:59.815Z,-1.93
2017-01-30T14:45:09.699Z,-1.94
2017-01-30T14:46:19.981Z,-1.9
2017-01-30T14:47:30.652Z,-2.07
2017-01-30T14:48:41.332Z,-2.18
2017-01-30T14:49:52.005Z,-2.33
2017-01-30T14:51:02.679Z,-2.48
2017-01-30T14:52:12.965Z,-2.47
2017-01-30T14:53:23.239Z,-2.62
2017-01-30T14:54:33.919Z,-2.68
2017-01-30T14:55:44.202Z,-2.8
2017-01-30T14:56:54.874Z,-2.91
2017-01-30T14:58:05.573Z,-2.91
2017-01-30T14:59:15.853Z,-3.04
2017-01-30T15:00:26.529Z,-3.04
2017-01-30T15:01:37.204Z,-3.09
2017-01-30T15:02:46.686Z,-3.15
2017-01-30T15:03:57.355Z,-3.2
2017-01-30T15:05:08.025Z,-3.23
2017-01-30T15:06:18.299Z,-3.32
2017-01-30T15:07:28.968Z,-3.38
2017-01-30T15:08:39.647Z,-3.38
2017-01-30T15:09:50.319Z,-3.36
2017-01-30T15:11:00.991Z,-3.43
2017-01-30T15:12:11.663Z,-3.43
2017-01-30T15:13:22.333Z,-3.47
2017-01-30T15:14:33.044Z,-3.51
2017-01-30T15:15:43.712Z,-3.44
2017-01-30T15:16:54.386Z,-3.58
2017-01-30T15:18:05.063Z,-3.66